METAR Data
IDs: Format: Raw Decoded Include TAF

Data at: 1448 UTC 22 Apr 2021

KOPF 221353Z 34008KT 10SM FEW080 24/14 A3007 RMK AO2 SLP185 T02440144 PNO $
KOPF 221253Z 36010KT 10SM BKN080 23/13 A3007 RMK AO2 SLP182 T02330133 PNO $
KOPF 221153Z 35006KT 10SM FEW060 BKN085 22/14 A3005 RMK AO2 SLP175 6//// 7//// T02220139 10239 20222 51016 PNO $
KOPF 221053Z AUTO 35008KT 10SM OVC075 22/14 A3003 RMK AO2 SLP170 T02220144 PNO $
KOPF 220953Z AUTO 36009KT 10SM BKN070 OVC080 23/16 A3002 RMK AO2 SLP165 T02280156 PNO $
KOPF 220853Z AUTO 33008KT 10SM OVC070 23/17 A3000 RMK AO2 SLP159 6//// T02280172 55000 PNO $
KOPF 220753Z AUTO 31008KT 10SM OVC075 23/18 A2999 RMK AO2 SLP156 T02280178 PNO $
KOPF 220653Z AUTO 32011KT 10SM SCT080 OVC100 23/19 A2999 RMK AO2 SLP156 T02330189 PNO $
KOPF 220553Z AUTO 32007KT 10SM BKN090 24/21 A3000 RMK AO2 SLP159 6//// T02390206 10256 20233 58007 PNO $
KOPF 220453Z AUTO 30005KT 10SM CLR 24/22 A3001 RMK AO2 SLP165 T02390217 403170239 PNO $
KOPF 220353Z AUTO 28005KT 10SM CLR 24/22 A3002 RMK AO2 SLP166 T02440217 PNO $
KOPF 220253Z 27005KT 10SM CLR 24/21 A3002 RMK AO2 SLP166 6//// T02440211 51010 PNO $
KOPF 220153Z 29005KT 10SM CLR 25/21 A3001 RMK AO2 SLP163 T02500211 PNO $
KOPF 220053Z 27003KT 10SM CLR 26/21 A3000 RMK AO2 SLP159 T02560211 PNO $
KOPF 212353Z 28006KT 10SM CLR 26/21 A2999 RMK AO2 SLP155 6//// T02560206 10311 20250 53007 PNO $
KOPF 212253Z 29008KT 10SM CLR 27/21 A2998 RMK AO2 SLP152 T02670206 PNO $
KOPF 212153Z 29008KT 10SM FEW040 BKN110 27/21 A2997 RMK AO2 LTG DSNT SE SLP150 T02670211 PNO $
KOPF 212053Z 30006KT 10SM SCT024 BKN033 OVC110 27/22 A2997 RMK AO2 LTG DSNT S RAB06E33 SLP148 6//// T02670222 58006 PNO $
KOPF 211953Z 33005KT 10SM FEW036 FEW070 27/23 A2997 RMK AO2 RAE11 SLP149 T02720228 PNO $
KOPF 211922Z 35008KT 10SM SCT035 BKN080 27/23 A2997 RMK AO2 LTG DSNT NE RAE11 T02670228 PNO $
KOPF 211853Z VRB05G17KT 3SM VCTS +RA BKN033 BKN042 OVC050 25/21 A2999 RMK AO2 LTG DSNT NE RAB34 SLP155 T02500211 PNO $
KOPF 211844Z 27011KT 3SM VCTS +RA BKN041 BKN055 OVC090 27/21 A2998 RMK AO2 LTG DSNT NE RAB34 P0000 T02670211
KOPF 211753Z 24009KT 10SM SCT042 SCT055 31/21 A2999 RMK AO2 SLP155 T03110206 10317 20250 58009
KOPF 211653Z 26009KT 10SM CLR 30/20 A3001 RMK AO2 SLP162 T03000200
KOPF 211553Z 23008KT 10SM CLR 29/21 A3001 RMK AO2 SLP164 T02940206
KOPF 211453Z 27005KT 10SM CLR 28/21 A3002 RMK AO2 SLP165 T02830211 50005
KOPF 211353Z 30005KT 10SM SCT029 BKN037 27/21 A3002 RMK AO2 SLP166 T02670206
KOPF 211253Z 28004KT 10SM OVC024 26/21 A3001 RMK AO2 SLP163 T02560206
KOPF 211243Z 29005KT 10SM BKN024 26/21 A3001 RMK AO2 T02560206
KOPF 211153Z 00000KT 10SM FEW024 SCT034 24/22 A3000 RMK AO2 SLP159 60000 T02440217 10256 20239 53012
KOPF 211120Z 00000KT 9SM BKN027 24/22 A2999 RMK AO2 LTG DSNT SE T02390217
KOPF 211053Z 00000KT 10SM SCT040 24/22 A2998 RMK AO2 LTG DSNT E-S SLP152 T02390222
KOPF 211038Z AUTO 29004KT 9SM FEW022 BKN043 OVC090 24/22 A2998 RMK AO2 LTG DSNT SE AND S T02440222
KOPF 211004Z AUTO 30004KT 6SM BR BKN018 BKN025 OVC038 24/23 A2998 RMK AO2 LTG DSNT E-S T02440228
KOPF 210953Z AUTO 32006KT 6SM BR FEW006 BKN035 OVC070 24/23 A2997 RMK AO2 LTG DSNT E-S RAE31 SLP150 P0000 T02440228
KOPF 210946Z AUTO 30008KT 6SM BR FEW007 BKN024 OVC075 24/23 A2997 RMK AO2 LTG DSNT E-S RAE31 P0000 T02440228
KOPF 210932Z AUTO 29006KT 7SM VCTS FEW006 SCT018 BKN030 25/23 A2997 RMK AO2 LTG DSNT E AND S RAE31 P0000 T02500228
KOPF 210916Z AUTO 30008KT 7SM -RA SCT013 BKN027 OVC075 25/23 A2997 RMK AO2 P0000 T02500228
KOPF 210913Z AUTO 31009KT 7SM VCTS -RA SCT013 BKN033 OVC075 25/23 A2996 RMK AO2 P0000 T02500228
KOPF 210906Z AUTO 34008KT 7SM VCTS -RA BKN029 BKN080 OVC095 26/23 A2996 RMK AO2 P0000 T02560233
KOPF 210853Z AUTO 26003KT 5SM RA SCT024 BKN031 OVC080 26/23 A2996 RMK AO2 RAB38 SLP147 P0000 60000 T02560228 58001
KOPF 210850Z AUTO 27004KT 5SM -RA SCT024 BKN033 OVC080 26/23 A2997 RMK AO2 RAB38 P0000
KOPF 210814Z AUTO 22005KT 8SM BKN024 BKN038 OVC049 26/23 A2997 RMK AO2 T02560228
KOPF 210805Z AUTO 22005KT 8SM SCT024 BKN032 OVC055 26/23 A2997 RMK AO2 T02560228
KOPF 210753Z AUTO 22003KT 8SM BKN022 OVC034 26/23 A2997 RMK AO2 SLP148 T02560228
KOPF 210731Z AUTO 00000KT 8SM BKN021 OVC032 26/23 A2996 RMK AO2 T02560228
KOPF 210653Z AUTO 21003KT 8SM FEW026 OVC037 26/23 A2997 RMK AO2 SLP149 T02560228
KOPF 210648Z AUTO 21005KT 8SM FEW026 BKN037 OVC047 26/23 A2997 RMK AO2
KOPF 210553Z AUTO 22005KT 8SM BKN021 OVC028 26/23 A2998 RMK AO2 SLP154 T02560228 10272 20250 58003
KOPF 210453Z AUTO 22003KT 8SM BKN016 BKN022 OVC027 26/23 A2999 RMK AO2 SLP157 T02610228 402940211
KOPF 210353Z AUTO 16004KT 9SM SCT020 BKN026 26/22 A2999 RMK AO2 SLP156 T02560222
KOPF 210349Z AUTO 16004KT 9SM FEW021 BKN028 26/22 A2999 RMK AO2
KOPF 210253Z 19004KT 9SM CLR 26/22 A2999 RMK AO2 SLP155 T02560222 51017